TAF Text Data
IDs:
Format:
Raw Decoded Include METAR

Data at: 1251 UTC 24 Jan 2021

KMKT 241135Z 2412/2512 27007KT P6SM OVC010
  TEMPO 2414/2417 BKN008
  FM241700 34007KT P6SM SCT026
  FM242000 35006KT P6SM SKC
  FM250200 03006KT P6SM BKN250